sensor_id;sensor_type;location;lat;lon;timestamp;pressure;altitude;pressure_sealevel;temperature
45393;BMP280;31129;44.810;10.334;2022-08-05T00:01:24;100607.91;;;30.17
45393;BMP280;31129;44.810;10.334;2022-08-05T00:03:50;100611.50;;;30.06
45393;BMP280;31129;44.810;10.334;2022-08-05T00:06:16;100612.13;;;30.04
45393;BMP280;31129;44.810;10.334;2022-08-05T00:08:42;100606.63;;;29.95
45393;BMP280;31129;44.810;10.334;2022-08-05T00:11:13;100614.31;;;30.06
45393;BMP280;31129;44.810;10.334;2022-08-05T00:13:40;100608.91;;;30.22
45393;BMP280;31129;44.810;10.334;2022-08-05T00:16:11;100609.28;;;30.16
45393;BMP280;31129;44.810;10.334;2022-08-05T00:18:37;100603.31;;;30.10
45393;BMP280;31129;44.810;10.334;2022-08-05T00:21:03;100604.16;;;30.13
45393;BMP280;31129;44.810;10.334;2022-08-05T00:23:29;100598.63;;;30.15
45393;BMP280;31129;44.810;10.334;2022-08-05T00:25:55;100603.41;;;30.12
45393;BMP280;31129;44.810;10.334;2022-08-05T00:28:20;100597.78;;;30.12
45393;BMP280;31129;44.810;10.334;2022-08-05T00:30:46;100597.50;;;30.20
45393;BMP280;31129;44.810;10.334;2022-08-05T00:33:11;100597.38;;;30.29
45393;BMP280;31129;44.810;10.334;2022-08-05T00:35:37;100594.31;;;30.25
45393;BMP280;31129;44.810;10.334;2022-08-05T00:38:02;100595.41;;;30.20
45393;BMP280;31129;44.810;10.334;2022-08-05T00:40:28;100595.31;;;30.18
45393;BMP280;31129;44.810;10.334;2022-08-05T00:42:58;100590.06;;;30.13
45393;BMP280;31129;44.810;10.334;2022-08-05T00:45:23;100589.59;;;30.04
45393;BMP280;31129;44.810;10.334;2022-08-05T00:47:49;100592.66;;;29.97
45393;BMP280;31129;44.810;10.334;2022-08-05T00:50:15;100592.16;;;30.12
45393;BMP280;31129;44.810;10.334;2022-08-05T00:52:40;100588.38;;;30.07
45393;BMP280;31129;44.810;10.334;2022-08-05T00:55:06;100586.53;;;30.12
45393;BMP280;31129;44.810;10.334;2022-08-05T00:57:32;100582.88;;;29.98
45393;BMP280;31129;44.810;10.334;2022-08-05T00:59:57;100587.44;;;29.80
45393;BMP280;31129;44.810;10.334;2022-08-05T01:02:23;100587.78;;;29.74
45393;BMP280;31129;44.810;10.334;2022-08-05T01:04:49;100580.09;;;29.63
45393;BMP280;31129;44.810;10.334;2022-08-05T01:07:15;100584.00;;;29.58
45393;BMP280;31129;44.810;10.334;2022-08-05T01:09:40;100582.91;;;29.51
45393;BMP280;31129;44.810;10.334;2022-08-05T01:12:11;100588.66;;;29.53
45393;BMP280;31129;44.810;10.334;2022-08-05T01:14:54;100586.94;;;29.37
45393;BMP280;31129;44.810;10.334;2022-08-05T01:22:57;100588.91;;;29.34
45393;BMP280;31129;44.810;10.334;2022-08-05T01:25:48;100596.59;;;29.34
45393;BMP280;31129;44.810;10.334;2022-08-05T01:28:25;100585.47;;;29.36
45393;BMP280;31129;44.810;10.334;2022-08-05T01:30:56;100584.00;;;29.23
45393;BMP280;31129;44.810;10.334;2022-08-05T01:33:27;100590.00;;;29.18
45393;BMP280;31129;44.810;10.334;2022-08-05T01:35:57;100581.91;;;29.12
45393;BMP280;31129;44.810;10.334;2022-08-05T01:38:24;100581.59;;;28.96
45393;BMP280;31129;44.810;10.334;2022-08-05T01:40:51;100577.81;;;28.92
45393;BMP280;31129;44.810;10.334;2022-08-05T01:43:19;100579.19;;;29.02
45393;BMP280;31129;44.810;10.334;2022-08-05T01:45:45;100580.03;;;28.93
45393;BMP280;31129;44.810;10.334;2022-08-05T01:48:12;100585.25;;;28.87
45393;BMP280;31129;44.810;10.334;2022-08-05T01:50:39;100587.34;;;28.87
45393;BMP280;31129;44.810;10.334;2022-08-05T01:53:11;100587.13;;;28.94
45393;BMP280;31129;44.810;10.334;2022-08-05T01:55:39;100588.44;;;28.93
45393;BMP280;31129;44.810;10.334;2022-08-05T01:58:08;100580.34;;;28.76
45393;BMP280;31129;44.810;10.334;2022-08-05T02:00:38;100583.53;;;28.82
45393;BMP280;31129;44.810;10.334;2022-08-05T02:03:20;100593.06;;;28.56
45393;BMP280;31129;44.810;10.334;2022-08-05T02:05:47;100588.19;;;28.89
45393;BMP280;31129;44.810;10.334;2022-08-05T02:08:13;100591.31;;;28.72
45393;BMP280;31129;44.810;10.334;2022-08-05T02:10:42;100594.66;;;28.59
45393;BMP280;31129;44.810;10.334;2022-08-05T02:13:15;100583.94;;;28.55
45393;BMP280;31129;44.810;10.334;2022-08-05T02:15:49;100592.88;;;28.63
45393;BMP280;31129;44.810;10.334;2022-08-05T02:18:31;100587.84;;;28.62
45393;BMP280;31129;44.810;10.334;2022-08-05T02:21:03;100590.09;;;28.75
45393;BMP280;31129;44.810;10.334;2022-08-05T02:23:33;100587.59;;;28.58
45393;BMP280;31129;44.810;10.334;2022-08-05T02:26:02;100577.91;;;28.49
45393;BMP280;31129;44.810;10.334;2022-08-05T02:28:30;100590.25;;;28.56
45393;BMP280;31129;44.810;10.334;2022-08-05T02:31:08;100579.75;;;28.35
45393;BMP280;31129;44.810;10.334;2022-08-05T02:33:38;100592.41;;;28.46
45393;BMP280;31129;44.810;10.334;2022-08-05T02:36:09;100584.06;;;28.36
45393;BMP280;31129;44.810;10.334;2022-08-05T02:38:36;100593.94;;;28.37
45393;BMP280;31129;44.810;10.334;2022-08-05T02:41:02;100582.88;;;28.39
45393;BMP280;31129;44.810;10.334;2022-08-05T02:43:28;100581.34;;;28.38
45393;BMP280;31129;44.810;10.334;2022-08-05T02:45:55;100580.47;;;28.24
45393;BMP280;31129;44.810;10.334;2022-08-05T02:48:21;100577.97;;;28.19
45393;BMP280;31129;44.810;10.334;2022-08-05T02:50:50;100582.06;;;28.27
45393;BMP280;31129;44.810;10.334;2022-08-05T02:53:17;100584.00;;;28.25
45393;BMP280;31129;44.810;10.334;2022-08-05T02:55:48;100584.91;;;28.18
45393;BMP280;31129;44.810;10.334;2022-08-05T02:58:19;100587.03;;;28.07
45393;BMP280;31129;44.810;10.334;2022-08-05T03:00:45;100581.03;;;28.01
45393;BMP280;31129;44.810;10.334;2022-08-05T03:03:17;100582.53;;;27.93
45393;BMP280;31129;44.810;10.334;2022-08-05T03:05:45;100579.88;;;27.95
45393;BMP280;31129;44.810;10.334;2022-08-05T03:08:10;100578.25;;;27.92
45393;BMP280;31129;44.810;10.334;2022-08-05T03:10:36;100581.75;;;28.02
45393;BMP280;31129;44.810;10.334;2022-08-05T03:13:11;100573.72;;;27.87
45393;BMP280;31129;44.810;10.334;2022-08-05T03:15:37;100583.28;;;27.93
45393;BMP280;31129;44.810;10.334;2022-08-05T03:18:03;100581.75;;;28.02
45393;BMP280;31129;44.810;10.334;2022-08-05T03:20:28;100572.59;;;28.01
45393;BMP280;31129;44.810;10.334;2022-08-05T03:22:54;100578.50;;;28.05
45393;BMP280;31129;44.810;10.334;2022-08-05T03:25:20;100584.66;;;28.13
45393;BMP280;31129;44.810;10.334;2022-08-05T03:27:48;100572.88;;;28.05
45393;BMP280;31129;44.810;10.334;2022-08-05T03:30:14;100581.03;;;28.01
45393;BMP280;31129;44.810;10.334;2022-08-05T03:32:40;100581.38;;;27.96
45393;BMP280;31129;44.810;10.334;2022-08-05T03:35:06;100580.63;;;27.95
45393;BMP280;31129;44.810;10.334;2022-08-05T03:37:32;100574.28;;;27.95
45393;BMP280;31129;44.810;10.334;2022-08-05T03:39:58;100582.47;;;27.81
45393;BMP280;31129;44.810;10.334;2022-08-05T03:42:24;100578.75;;;27.88
45393;BMP280;31129;44.810;10.334;2022-08-05T03:44:50;100582.69;;;27.95
45393;BMP280;31129;44.810;10.334;2022-08-05T03:47:15;100587.09;;;27.98
45393;BMP280;31129;44.810;10.334;2022-08-05T03:49:41;100576.38;;;27.63
45393;BMP280;31129;44.810;10.334;2022-08-05T03:52:10;100573.06;;;27.67
45393;BMP280;31129;44.810;10.334;2022-08-05T03:54:57;100574.81;;;27.41
45393;BMP280;31129;44.810;10.334;2022-08-05T03:57:27;100581.50;;;27.07
45393;BMP280;31129;44.810;10.334;2022-08-05T04:00:13;100581.22;;;27.13
45393;BMP280;31129;44.810;10.334;2022-08-05T04:02:43;100577.22;;;27.26
45393;BMP280;31129;44.810;10.334;2022-08-05T04:05:09;100578.53;;;27.15
45393;BMP280;31129;44.810;10.334;2022-08-05T04:07:38;100570.13;;;27.15
45393;BMP280;31129;44.810;10.334;2022-08-05T04:10:05;100566.19;;;26.99
45393;BMP280;31129;44.810;10.334;2022-08-05T04:12:31;100571.91;;;27.10
45393;BMP280;31129;44.810;10.334;2022-08-05T04:14:58;100566.69;;;27.36
45393;BMP280;31129;44.810;10.334;2022-08-05T04:17:23;100569.94;;;27.42
45393;BMP280;31129;44.810;10.334;2022-08-05T04:19:49;100573.72;;;27.06
45393;BMP280;31129;44.810;10.334;2022-08-05T04:22:15;100571.78;;;27.18
45393;BMP280;31129;44.810;10.334;2022-08-05T04:24:42;100572.94;;;27.15
45393;BMP280;31129;44.810;10.334;2022-08-05T04:27:08;100565.16;;;27.13
45393;BMP280;31129;44.810;10.334;2022-08-05T04:29:33;100566.78;;;27.07
45393;BMP280;31129;44.810;10.334;2022-08-05T04:32:02;100571.91;;;27.20
45393;BMP280;31129;44.810;10.334;2022-08-05T04:34:28;100571.22;;;26.91
45393;BMP280;31129;44.810;10.334;2022-08-05T04:37:04;100567.53;;;26.88
45393;BMP280;31129;44.810;10.334;2022-08-05T04:39:30;100572.34;;;27.16
45393;BMP280;31129;44.810;10.334;2022-08-05T04:41:56;100578.09;;;27.28
45393;BMP280;31129;44.810;10.334;2022-08-05T04:44:21;100580.75;;;27.26
45393;BMP280;31129;44.810;10.334;2022-08-05T04:46:47;100580.50;;;27.03
45393;BMP280;31129;44.810;10.334;2022-08-05T04:49:12;100581.66;;;27.09
45393;BMP280;31129;44.810;10.334;2022-08-05T04:51:38;100587.72;;;26.67
45393;BMP280;31129;44.810;10.334;2022-08-05T04:54:03;100585.78;;;26.99
45393;BMP280;31129;44.810;10.334;2022-08-05T04:56:29;100582.88;;;26.87
45393;BMP280;31129;44.810;10.334;2022-08-05T04:58:55;100583.75;;;26.90
45393;BMP280;31129;44.810;10.334;2022-08-05T05:01:20;100583.75;;;26.80
45393;BMP280;31129;44.810;10.334;2022-08-05T05:03:46;100586.56;;;26.61
45393;BMP280;31129;44.810;10.334;2022-08-05T05:06:12;100578.00;;;26.68
45393;BMP280;31129;44.810;10.334;2022-08-05T05:08:38;100582.84;;;26.97
45393;BMP280;31129;44.810;10.334;2022-08-05T05:11:04;100577.50;;;27.20
45393;BMP280;31129;44.810;10.334;2022-08-05T05:13:30;100579.56;;;27.29
45393;BMP280;31129;44.810;10.334;2022-08-05T05:15:56;100583.69;;;27.28
45393;BMP280;31129;44.810;10.334;2022-08-05T05:18:22;100576.34;;;27.13
45393;BMP280;31129;44.810;10.334;2022-08-05T05:20:48;100586.50;;;27.28
45393;BMP280;31129;44.810;10.334;2022-08-05T05:23:14;100583.59;;;27.07
45393;BMP280;31129;44.810;10.334;2022-08-05T05:25:41;100579.00;;;27.11
45393;BMP280;31129;44.810;10.334;2022-08-05T05:28:07;100578.94;;;27.40
45393;BMP280;31129;44.810;10.334;2022-08-05T05:30:33;100589.69;;;27.53
45393;BMP280;31129;44.810;10.334;2022-08-05T05:33:01;100589.41;;;27.49
45393;BMP280;31129;44.810;10.334;2022-08-05T05:35:28;100592.13;;;27.18
45393;BMP280;31129;44.810;10.334;2022-08-05T05:37:56;100588.13;;;27.22
45393;BMP280;31129;44.810;10.334;2022-08-05T05:40:23;100589.41;;;27.40
45393;BMP280;31129;44.810;10.334;2022-08-05T05:42:49;100597.44;;;27.14
45393;BMP280;31129;44.810;10.334;2022-08-05T05:45:16;100586.09;;;27.12
45393;BMP280;31129;44.810;10.334;2022-08-05T05:47:42;100593.41;;;27.37
45393;BMP280;31129;44.810;10.334;2022-08-05T05:50:09;100590.44;;;27.44
45393;BMP280;31129;44.810;10.334;2022-08-05T05:52:35;100596.16;;;27.46
45393;BMP280;31129;44.810;10.334;2022-08-05T05:55:02;100596.38;;;27.39
45393;BMP280;31129;44.810;10.334;2022-08-05T05:57:28;100604.28;;;27.52
45393;BMP280;31129;44.810;10.334;2022-08-05T05:59:53;100594.66;;;27.55
45393;BMP280;31129;44.810;10.334;2022-08-05T06:02:19;100596.00;;;27.63
45393;BMP280;31129;44.810;10.334;2022-08-05T06:04:44;100595.09;;;27.61
45393;BMP280;31129;44.810;10.334;2022-08-05T06:07:10;100598.97;;;27.46
45393;BMP280;31129;44.810;10.334;2022-08-05T06:09:35;100602.84;;;27.51
45393;BMP280;31129;44.810;10.334;2022-08-05T06:12:01;100601.13;;;27.67
45393;BMP280;31129;44.810;10.334;2022-08-05T06:14:27;100603.47;;;27.71
45393;BMP280;31129;44.810;10.334;2022-08-05T06:16:52;100609.47;;;27.86
45393;BMP280;31129;44.810;10.334;2022-08-05T06:19:18;100606.03;;;27.97
45393;BMP280;31129;44.810;10.334;2022-08-05T06:21:43;100614.25;;;28.05
45393;BMP280;31129;44.810;10.334;2022-08-05T06:24:13;100621.72;;;27.91
45393;BMP280;31129;44.810;10.334;2022-08-05T06:26:42;100612.28;;;28.07
45393;BMP280;31129;44.810;10.334;2022-08-05T06:29:07;100617.63;;;28.13
45393;BMP280;31129;44.810;10.334;2022-08-05T06:31:33;100609.19;;;28.34
45393;BMP280;31129;44.810;10.334;2022-08-05T06:33:58;100616.28;;;28.35
45393;BMP280;31129;44.810;10.334;2022-08-05T06:36:24;100612.91;;;28.06
45393;BMP280;31129;44.810;10.334;2022-08-05T06:38:50;100621.88;;;28.14
45393;BMP280;31129;44.810;10.334;2022-08-05T06:41:19;100616.03;;;28.52
45393;BMP280;31129;44.810;10.334;2022-08-05T06:43:46;100605.91;;;28.38
45393;BMP280;31129;44.810;10.334;2022-08-05T06:46:11;100623.97;;;28.56
45393;BMP280;31129;44.810;10.334;2022-08-05T06:48:37;100616.03;;;28.52
45393;BMP280;31129;44.810;10.334;2022-08-05T06:51:03;100613.75;;;28.39
45393;BMP280;31129;44.810;10.334;2022-08-05T06:53:29;100623.66;;;28.40
45393;BMP280;31129;44.810;10.334;2022-08-05T06:55:56;100627.19;;;28.41
45393;BMP280;31129;44.810;10.334;2022-08-05T06:58:22;100622.56;;;28.45
45393;BMP280;31129;44.810;10.334;2022-08-05T07:00:48;100610.47;;;28.64
45393;BMP280;31129;44.810;10.334;2022-08-05T07:03:13;100615.72;;;28.91
45393;BMP280;31129;44.810;10.334;2022-08-05T07:05:39;100619.38;;;28.93
45393;BMP280;31129;44.810;10.334;2022-08-05T07:08:04;100608.75;;;29.03
45393;BMP280;31129;44.810;10.334;2022-08-05T07:10:31;100617.56;;;29.09
45393;BMP280;31129;44.810;10.334;2022-08-05T07:12:57;100607.22;;;29.12
45393;BMP280;31129;44.810;10.334;2022-08-05T07:15:57;100607.94;;;29.24
45393;BMP280;31129;44.810;10.334;2022-08-05T07:18:41;100612.50;;;29.41
45393;BMP280;31129;44.810;10.334;2022-08-05T07:21:10;100608.72;;;29.48
45393;BMP280;31129;44.810;10.334;2022-08-05T07:23:36;100602.63;;;29.51
45393;BMP280;31129;44.810;10.334;2022-08-05T07:26:02;100611.53;;;29.48
45393;BMP280;31129;44.810;10.334;2022-08-05T07:28:28;100603.59;;;29.44
45393;BMP280;31129;44.810;10.334;2022-08-05T07:30:53;100614.56;;;29.29
45393;BMP280;31129;44.810;10.334;2022-08-05T07:33:19;100607.97;;;29.36
45393;BMP280;31129;44.810;10.334;2022-08-05T07:35:47;100605.16;;;29.47
45393;BMP280;31129;44.810;10.334;2022-08-05T07:38:17;100605.31;;;29.61
45393;BMP280;31129;44.810;10.334;2022-08-05T07:40:43;100609.34;;;29.93
45393;BMP280;31129;44.810;10.334;2022-08-05T07:43:10;100616.19;;;29.90
45393;BMP280;31129;44.810;10.334;2022-08-05T07:45:35;100612.22;;;30.06
45393;BMP280;31129;44.810;10.334;2022-08-05T07:48:01;100612.50;;;29.99
45393;BMP280;31129;44.810;10.334;2022-08-05T07:50:27;100608.59;;;29.92
45393;BMP280;31129;44.810;10.334;2022-08-05T07:52:52;100608.78;;;30.20
45393;BMP280;31129;44.810;10.334;2022-08-05T07:55:18;100607.63;;;30.36
45393;BMP280;31129;44.810;10.334;2022-08-05T07:57:43;100606.38;;;29.91
45393;BMP280;31129;44.810;10.334;2022-08-05T08:00:09;100605.84;;;30.18
45393;BMP280;31129;44.810;10.334;2022-08-05T08:02:39;100597.28;;;30.16
45393;BMP280;31129;44.810;10.334;2022-08-05T08:05:05;100607.81;;;30.15
45393;BMP280;31129;44.810;10.334;2022-08-05T08:07:31;100607.09;;;30.15
45393;BMP280;31129;44.810;10.334;2022-08-05T08:09:57;100610.53;;;30.13
45393;BMP280;31129;44.810;10.334;2022-08-05T08:12:23;100602.50;;;30.33
45393;BMP280;31129;44.810;10.334;2022-08-05T08:14:49;100611.31;;;30.39
45393;BMP280;31129;44.810;10.334;2022-08-05T08:17:14;100605.31;;;30.33
45393;BMP280;31129;44.810;10.334;2022-08-05T08:19:40;100604.53;;;30.55
45393;BMP280;31129;44.810;10.334;2022-08-05T08:22:07;100607.03;;;30.38
45393;BMP280;31129;44.810;10.334;2022-08-05T08:24:33;100612.31;;;30.32
45393;BMP280;31129;44.810;10.334;2022-08-05T08:27:00;100611.78;;;30.47
45393;BMP280;31129;44.810;10.334;2022-08-05T08:29:28;100606.09;;;30.58
45393;BMP280;31129;44.810;10.334;2022-08-05T08:31:57;100616.53;;;30.56
45393;BMP280;31129;44.810;10.334;2022-08-05T08:34:26;100615.91;;;30.57
45393;BMP280;31129;44.810;10.334;2022-08-05T08:36:51;100609.50;;;30.82
45393;BMP280;31129;44.810;10.334;2022-08-05T08:39:17;100601.56;;;31.04
45393;BMP280;31129;44.810;10.334;2022-08-05T08:41:45;100608.06;;;31.20
45393;BMP280;31129;44.810;10.334;2022-08-05T08:44:13;100600.31;;;31.07
45393;BMP280;31129;44.810;10.334;2022-08-05T08:46:39;100600.91;;;31.31
45393;BMP280;31129;44.810;10.334;2022-08-05T08:49:06;100605.38;;;31.36
45393;BMP280;31129;44.810;10.334;2022-08-05T08:51:33;100600.19;;;31.05
45393;BMP280;31129;44.810;10.334;2022-08-05T08:53:59;100607.03;;;31.13
45393;BMP280;31129;44.810;10.334;2022-08-05T08:56:25;100608.19;;;31.22
45393;BMP280;31129;44.810;10.334;2022-08-05T08:58:51;100606.19;;;31.25
45393;BMP280;31129;44.810;10.334;2022-08-05T09:01:17;100611.56;;;31.59
45393;BMP280;31129;44.810;10.334;2022-08-05T09:03:50;100612.63;;;31.66
45393;BMP280;31129;44.810;10.334;2022-08-05T09:06:16;100608.84;;;31.61
45393;BMP280;31129;44.810;10.334;2022-08-05T09:08:42;100613.31;;;31.66
45393;BMP280;31129;44.810;10.334;2022-08-05T09:11:08;100612.06;;;31.70
45393;BMP280;31129;44.810;10.334;2022-08-05T09:13:35;100610.22;;;31.74
45393;BMP280;31129;44.810;10.334;2022-08-05T09:16:01;100620.97;;;31.78
45393;BMP280;31129;44.810;10.334;2022-08-05T09:18:27;100616.28;;;31.82
45393;BMP280;31129;44.810;10.334;2022-08-05T09:20:53;100610.19;;;32.01
45393;BMP280;31129;44.810;10.334;2022-08-05T09:23:19;100605.25;;;31.88
45393;BMP280;31129;44.810;10.334;2022-08-05T09:25:47;100605.25;;;31.88
45393;BMP280;31129;44.810;10.334;2022-08-05T09:28:21;100608.28;;;32.20
45393;BMP280;31129;44.810;10.334;2022-08-05T09:31:02;100604.13;;;32.36
45393;BMP280;31129;44.810;10.334;2022-08-05T09:33:29;100598.94;;;32.17
45393;BMP280;31129;44.810;10.334;2022-08-05T09:35:59;100589.44;;;32.40
45393;BMP280;31129;44.810;10.334;2022-08-05T09:38:26;100597.06;;;32.51
45393;BMP280;31129;44.810;10.334;2022-08-05T09:40:52;100595.97;;;32.58
45393;BMP280;31129;44.810;10.334;2022-08-05T09:43:29;100591.72;;;32.72
45393;BMP280;31129;44.810;10.334;2022-08-05T09:45:55;100599.94;;;32.66
45393;BMP280;31129;44.810;10.334;2022-08-05T09:48:32;100600.00;;;32.68
45393;BMP280;31129;44.810;10.334;2022-08-05T09:51:00;100587.50;;;32.73
45393;BMP280;31129;44.810;10.334;2022-08-05T09:53:26;100595.19;;;32.87
45393;BMP280;31129;44.810;10.334;2022-08-05T09:56:00;100589.28;;;32.81
45393;BMP280;31129;44.810;10.334;2022-08-05T09:58:26;100583.25;;;32.88
45393;BMP280;31129;44.810;10.334;2022-08-05T10:01:01;100573.00;;;32.81
45393;BMP280;31129;44.810;10.334;2022-08-05T10:03:27;100578.06;;;32.83
45393;BMP280;31129;44.810;10.334;2022-08-05T10:06:06;100576.78;;;32.86
45393;BMP280;31129;44.810;10.334;2022-08-05T10:08:36;100571.47;;;32.94
45393;BMP280;31129;44.810;10.334;2022-08-05T10:11:04;100573.22;;;33.01
45393;BMP280;31129;44.810;10.334;2022-08-05T10:13:39;100573.38;;;33.05
45393;BMP280;31129;44.810;10.334;2022-08-05T10:16:06;100565.28;;;32.97
45393;BMP280;31129;44.810;10.334;2022-08-05T10:18:32;100565.28;;;32.97
45393;BMP280;31129;44.810;10.334;2022-08-05T10:21:02;100562.94;;;33.25
45393;BMP280;31129;44.810;10.334;2022-08-05T10:23:32;100557.28;;;33.25
45393;BMP280;31129;44.810;10.334;2022-08-05T10:26:00;100555.53;;;33.34
45393;BMP280;31129;44.810;10.334;2022-08-05T10:28:29;100557.75;;;33.35
45393;BMP280;31129;44.810;10.334;2022-08-05T10:30:56;100558.69;;;33.57
45393;BMP280;31129;44.810;10.334;2022-08-05T10:33:24;100557.94;;;33.72
45393;BMP280;31129;44.810;10.334;2022-08-05T10:35:51;100548.50;;;33.68
45393;BMP280;31129;44.810;10.334;2022-08-05T10:38:19;100540.66;;;33.84
45393;BMP280;31129;44.810;10.334;2022-08-05T10:46:11;100549.38;;;34.06
45393;BMP280;31129;44.810;10.334;2022-08-05T10:48:46;100540.28;;;33.92
45393;BMP280;31129;44.810;10.334;2022-08-05T10:51:14;100543.69;;;34.06
45393;BMP280;31129;44.810;10.334;2022-08-05T10:56:15;100543.63;;;34.21
45393;BMP280;31129;44.810;10.334;2022-08-05T11:01:35;100526.03;;;33.90
45393;BMP280;31129;44.810;10.334;2022-08-05T11:04:03;100534.53;;;34.07
45393;BMP280;31129;44.810;10.334;2022-08-05T11:06:32;100532.56;;;34.29
45393;BMP280;31129;44.810;10.334;2022-08-05T11:09:11;100535.72;;;34.38
45393;BMP280;31129;44.810;10.334;2022-08-05T11:11:37;100542.63;;;34.32
45393;BMP280;31129;44.810;10.334;2022-08-05T11:14:03;100541.84;;;34.50
45393;BMP280;31129;44.810;10.334;2022-08-05T11:16:30;100532.19;;;34.57
45393;BMP280;31129;44.810;10.334;2022-08-05T11:19:24;100534.75;;;34.68
45393;BMP280;31129;44.810;10.334;2022-08-05T11:21:54;100528.81;;;34.80
45393;BMP280;31129;44.810;10.334;2022-08-05T11:24:20;100526.03;;;34.82
45393;BMP280;31129;44.810;10.334;2022-08-05T11:26:49;100515.34;;;34.80
45393;BMP280;31129;44.810;10.334;2022-08-05T11:32:24;100515.94;;;35.18
45393;BMP280;31129;44.810;10.334;2022-08-05T11:34:51;100512.53;;;35.22
45393;BMP280;31129;44.810;10.334;2022-08-05T11:40:04;100512.81;;;35.30
45393;BMP280;31129;44.810;10.334;2022-08-05T11:42:33;100506.47;;;35.31
45393;BMP280;31129;44.810;10.334;2022-08-05T11:45:04;100506.66;;;35.37
45393;BMP280;31129;44.810;10.334;2022-08-05T11:47:31;100502.56;;;35.42
45393;BMP280;31129;44.810;10.334;2022-08-05T11:49:59;100499.31;;;35.52
45393;BMP280;31129;44.810;10.334;2022-08-05T11:52:28;100490.41;;;35.40
45393;BMP280;31129;44.810;10.334;2022-08-05T11:54:57;100492.19;;;35.51
45393;BMP280;31129;44.810;10.334;2022-08-05T11:57:28;100496.97;;;35.66
45393;BMP280;31129;44.810;10.334;2022-08-05T11:59:54;100491.84;;;35.84
45393;BMP280;31129;44.810;10.334;2022-08-05T12:02:25;100489.06;;;35.86
45393;BMP280;31129;44.810;10.334;2022-08-05T12:04:51;100484.28;;;35.93
45393;BMP280;31129;44.810;10.334;2022-08-05T12:07:17;100489.69;;;36.06
45393;BMP280;31129;44.810;10.334;2022-08-05T12:09:47;100484.56;;;36.27
45393;BMP280;31129;44.810;10.334;2022-08-05T12:12:20;100491.81;;;36.06
45393;BMP280;31129;44.810;10.334;2022-08-05T12:14:46;100485.44;;;36.07
45393;BMP280;31129;44.810;10.334;2022-08-05T12:17:13;100484.63;;;36.29
45393;BMP280;31129;44.810;10.334;2022-08-05T12:19:41;100485.63;;;36.37
45393;BMP280;31129;44.810;10.334;2022-08-05T12:22:20;100482.13;;;36.15
45393;BMP280;31129;44.810;10.334;2022-08-05T12:24:49;100486.22;;;36.10
45393;BMP280;31129;44.810;10.334;2022-08-05T12:27:21;100474.09;;;36.33
45393;BMP280;31129;44.810;10.334;2022-08-05T12:30:07;100476.41;;;36.64
45393;BMP280;31129;44.810;10.334;2022-08-05T12:32:42;100476.28;;;36.86
45393;BMP280;31129;44.810;10.334;2022-08-05T12:35:10;100480.38;;;37.07
45393;BMP280;31129;44.810;10.334;2022-08-05T12:37:36;100478.69;;;37.55
45393;BMP280;31129;44.810;10.334;2022-08-05T12:40:02;100474.28;;;37.50
45393;BMP280;31129;44.810;10.334;2022-08-05T12:42:28;100470.88;;;37.26
45393;BMP280;31129;44.810;10.334;2022-08-05T12:45:05;100461.59;;;37.55
45393;BMP280;31129;44.810;10.334;2022-08-05T12:47:34;100461.44;;;37.49
45393;BMP280;31129;44.810;10.334;2022-08-05T12:50:15;100460.72;;;37.49
45393;BMP280;31129;44.810;10.334;2022-08-05T12:52:40;100455.31;;;37.31
45393;BMP280;31129;44.810;10.334;2022-08-05T12:55:30;100447.59;;;37.06
45393;BMP280;31129;44.810;10.334;2022-08-05T12:57:56;100451.00;;;37.28
45393;BMP280;31129;44.810;10.334;2022-08-05T13:00:23;100455.19;;;37.25
45393;BMP280;31129;44.810;10.334;2022-08-05T13:02:51;100443.09;;;37.26
45393;BMP280;31129;44.810;10.334;2022-08-05T13:05:17;100443.44;;;37.11
45393;BMP280;31129;44.810;10.334;2022-08-05T13:07:44;100432.94;;;37.19
45393;BMP280;31129;44.810;10.334;2022-08-05T13:10:12;100437.56;;;37.33
45393;BMP280;31129;44.810;10.334;2022-08-05T13:12:39;100434.84;;;37.39
45393;BMP280;31129;44.810;10.334;2022-08-05T13:15:09;100433.94;;;37.30
45393;BMP280;31129;44.810;10.334;2022-08-05T13:17:35;100436.56;;;37.83
45393;BMP280;31129;44.810;10.334;2022-08-05T13:20:05;100426.56;;;38.18
45393;BMP280;31129;44.810;10.334;2022-08-05T13:22:33;100431.50;;;38.54
45393;BMP280;31129;44.810;10.334;2022-08-05T13:25:00;100420.22;;;38.24
45393;BMP280;31129;44.810;10.334;2022-08-05T13:27:33;100418.03;;;38.20
45393;BMP280;31129;44.810;10.334;2022-08-05T13:29:58;100419.19;;;38.43
45393;BMP280;31129;44.810;10.334;2022-08-05T13:32:25;100420.00;;;38.47
45393;BMP280;31129;44.810;10.334;2022-08-05T13:34:51;100408.41;;;38.02
45393;BMP280;31129;44.810;10.334;2022-08-05T13:37:18;100414.53;;;37.88
45393;BMP280;31129;44.810;10.334;2022-08-05T13:39:48;100408.28;;;37.96
45393;BMP280;31129;44.810;10.334;2022-08-05T13:42:14;100410.94;;;37.85
45393;BMP280;31129;44.810;10.334;2022-08-05T13:44:43;100402.03;;;38.03
45393;BMP280;31129;44.810;10.334;2022-08-05T13:47:09;100406.16;;;37.96
45393;BMP280;31129;44.810;10.334;2022-08-05T13:49:35;100402.88;;;37.74
45393;BMP280;31129;44.810;10.334;2022-08-05T13:54:37;100406.56;;;37.80
45393;BMP280;31129;44.810;10.334;2022-08-05T13:57:03;100397.69;;;38.00
45393;BMP280;31129;44.810;10.334;2022-08-05T13:59:28;100391.38;;;38.43
45393;BMP280;31129;44.810;10.334;2022-08-05T14:01:56;100392.69;;;38.38
45393;BMP280;31129;44.810;10.334;2022-08-05T14:04:21;100391.66;;;38.22
45393;BMP280;31129;44.810;10.334;2022-08-05T14:07:08;100385.25;;;38.59
45393;BMP280;31129;44.810;10.334;2022-08-05T14:09:35;100379.75;;;38.73
45393;BMP280;31129;44.810;10.334;2022-08-05T14:12:03;100379.66;;;39.15
45393;BMP280;31129;44.810;10.334;2022-08-05T14:14:29;100376.94;;;39.79